Home > Products > Valid Products > TAF

000
FTUS44 KFWD 200500
TAFACT
TAF
KACT 200520Z 2006/2106 13006KT P6SM SCT050
     FM200800 13006KT 6SM BR BKN018 OVC030
     FM201200 13005KT 2SM BR OVC006
     FM201500 13007KT 6SM BR OVC013
     FM201700 13007KT P6SM OVC022
     FM201900 14008KT P6SM BKN040=



000
FTUS44 KFWD 200500
TAFFTW
TAF
KFTW 200520Z 2006/2106 12009KT P6SM BKN040
     FM201100 13006KT P6SM BKN022
     FM201500 13007KT P6SM OVC022
     FM201800 14007KT P6SM SCT040=



000
FTUS44 KFWD 200500
TAFDFW
TAF
KDFW 200520Z 2006/2112 12009KT P6SM BKN040
     FM201100 13006KT P6SM BKN022
     FM201500 13007KT P6SM OVC022
     FM201800 14007KT P6SM SCT040=



000
FTUS44 KFWD 200300 AAA
TAFDFW
TAF AMD
KDFW 200301Z 2003/2106 12009KT P6SM SCT050
     FM201100 13006KT P6SM BKN025
     FM201300 15006KT 6SM BR OVC012
     FM201500 13007KT P6SM OVC022
     FM201800 14007KT P6SM BKN040=



000
FTUS44 KFWD 200300 AAA
TAFACT
TAF AMD
KACT 200301Z 2003/2024 13006KT P6SM SCT050
     FM200800 13006KT 6SM BR OVC018
     FM201200 13005KT 2SM BR OVC006
     FM201500 13007KT 6SM BR OVC013
     FM201700 13007KT P6SM OVC022
     FM201900 14008KT P6SM BKN040=



000
FTUS44 KFWD 200300 AAA
TAFFTW
TAF AMD
KFTW 200301Z 2003/2024 13008KT P6SM SCT050
     FM201100 13006KT P6SM BKN025
     FM201300 15006KT 6SM BR OVC012
     FM201500 13007KT P6SM OVC022
     FM201800 14007KT P6SM BKN040=



000
FTUS44 KFWD 192300
TAFDFW
TAF
KDFW 192320Z 2000/2106 12009KT P6SM SCT050
     FM201100 13006KT P6SM BKN025
     FM201300 15006KT 6SM BR OVC012
     FM201500 13007KT P6SM OVC022
     FM201800 14007KT P6SM BKN040=



000
FTUS44 KFWD 192300
TAFACT
TAF
KACT 192320Z 2000/2024 12006KT P6SM VCSH SCT050 BKN250
     FM200100 13006KT P6SM SCT050
     FM200800 13006KT 6SM BR OVC018
     FM201200 13005KT 2SM BR OVC006
     FM201500 13007KT 6SM BR OVC013
     FM201700 13007KT P6SM OVC022
     FM201900 14008KT P6SM BKN040=



000
FTUS44 KFWD 192300
TAFFTW
TAF
KFTW 192320Z 2000/2024 13008KT P6SM SCT050
     FM201100 13006KT P6SM BKN025
     FM201300 15006KT 6SM BR OVC012
     FM201500 13007KT P6SM OVC022
     FM201800 14007KT P6SM BKN040=



000
FTUS44 KFWD 192000 AAA
TAFFTW
TAF AMD
KFTW 192056Z 1921/2018 12009KT P6SM SCT035 BKN060
     FM201000 13006KT P6SM BKN030
     FM201200 15006KT 6SM BR OVC012
     FM201600 13007KT P6SM OVC022=



000
FTUS44 KFWD 192000 AAA
TAFACT
TAF AMD
KACT 192056Z 1921/2018 13006KT P6SM VCSH SCT035 BKN050
     FM200100 13006KT P6SM SCT050
     FM200700 13006KT 4SM BR OVC020
     FM200900 13003KT 1SM BR OVC006
     FM201500 13007KT 6SM BR OVC013
     FM201600 13007KT P6SM OVC022=



000
FTUS44 KFWD 192000 AAA
TAFDFW
TAF AMD
KDFW 192056Z 1921/2024 12009KT P6SM SCT035 BKN070
     FM201000 13006KT P6SM BKN030
     FM201200 15006KT 6SM BR OVC012
     FM201600 13007KT P6SM OVC022
     FM201800 14007KT P6SM BKN035=



000
FTUS44 KFWD 191700
TAFACT
TAF
KACT 191735Z 1918/2018 09006KT P6SM BKN035
     FM192000 13006KT P6SM VCSH BKN040
     FM200100 13006KT P6SM BKN045
     FM200700 13006KT 4SM BR OVC020
     FM200900 13003KT 1SM BR OVC006
     FM201600 13007KT 6SM BR OVC020=



000
FTUS44 KFWD 191700
TAFFTW
TAF
KFTW 191735Z 1918/2018 11005KT P6SM BKN035
     FM192000 12009KT P6SM SCT040
     FM201000 13006KT P6SM BKN030
     FM201200 15006KT 2SM BR OVC010=



000
FTUS44 KFWD 191700
TAFDFW
TAF
KDFW 191735Z 1918/2024 11005KT P6SM BKN035
     FM192000 12009KT P6SM SCT040
     FM201000 13006KT P6SM BKN030
     FM201200 15006KT 2SM BR OVC010
     FM201900 14007KT P6SM BKN035=



000
FTUS44 KFWD 191600 AAB
TAFDFW
TAF AMD
KDFW 191607Z 1916/2018 11007KT P6SM SCT013 BKN022
      TEMPO 1916/1917 BKN013
     FM191800 12008KT P6SM SCT040 BKN250
     FM201130 15006KT P6SM BKN020=



000
FTUS44 KFWD 191500 AAA
TAFACT
TAF AMD
KACT 191504Z 1915/2012 05003KT 1SM BR OVC003
      TEMPO 1915/1917 4SM BR BKN009
     FM191700 13006KT P6SM VCSH SCT008 BKN015
     FM192000 13008KT P6SM VCSH BKN040
     FM200900 15003KT 4SM BR BKN010=



000
FTUS44 KFWD 191500 AAA
TAFDFW
TAF AMD
KDFW 191504Z 1915/2018 11005KT P6SM BKN010
      TEMPO 1915/1917 BKN009
     FM191700 11005KT P6SM BKN022
     FM191800 12008KT P6SM SCT040 BKN250
     FM201130 15006KT P6SM BKN020=



000
FTUS44 KFWD 191500 AAB
TAFFTW
TAF AMD
KFTW 191504Z 1915/2012 13005KT P6SM BKN010
      TEMPO 1915/1916 BKN008
     FM191700 11005KT P6SM BKN022
     FM191800 12008KT P6SM SCT040 BKN250
     FM201130 15006KT P6SM BKN020=



000
FTUS44 KFWD 191400 AAA
TAFFTW
TAF AMD
KFTW 191450Z 1915/2012 13005KT P6SM SCT006 BKN015
      TEMPO 1915/1916 5SM BR BKN007
     FM191700 12008KT P6SM SCT040 BKN250
     FM201130 15006KT P6SM BKN020=



000
FTUS44 KFWD 191200 CCA
TAFACT
TAF COR
KACT 191200Z 1912/2012 05005KT 3SM BR BKN005
      TEMPO 1912/1915 00000KT 1SM BR BKN002
     FM191530 13008KT P6SM VCSH SCT008 BKN015
     FM192000 13008KT P6SM VCSH BKN040
     FM200900 15003KT 4SM BR BKN010=



000
FTUS44 KFWD 191100
TAFFTW
TAF
KFTW 191139Z 1912/2012 13005KT P6SM SCT006 BKN015
      TEMPO 1912/1914 4SM BR BKN007
     FM191700 12008KT P6SM SCT040 BKN250
     FM201130 15006KT P6SM BKN020=



000
FTUS44 KFWD 191100
TAFDFW
TAF
KDFW 191139Z 1912/2018 13005KT P6SM SCT006 BKN015
      TEMPO 1912/1914 4SM BR BKN007
     FM191700 12008KT P6SM SCT040 BKN250
     FM201130 15006KT P6SM BKN020=



000
FTUS44 KFWD 191100
TAFACT
TAF
KACT 191139Z 1912/2012 12003KT 4SM BR BKN006 OVC015
      TEMPO 1912/1915 00000KT 2SM BR BKN002
     FM191530 13008KT P6SM VCSH SCT008 BKN015
     FM192000 13008KT P6SM VCSH BKN040
     FM200900 15003KT 4SM BR BKN010=



000
FTUS44 KFWD 190900 AAA
TAFDFW
TAF AMD
KDFW 190906Z 1909/2012 12004KT P6SM SCT011 BKN250
     FM191030 12003KT P6SM BKN012
     FM191700 13009KT P6SM SCT040 BKN250=



000
FTUS44 KFWD 190900 AAA
TAFFTW
TAF AMD
KFTW 190906Z 1909/2006 12004KT P6SM SCT011 BKN250
     FM191030 12003KT P6SM BKN012
     FM191700 13009KT P6SM SCT040 BKN250=



000
FTUS44 KFWD 190900 AAB
TAFACT
TAF AMD
KACT 190906Z 1909/2006 08004KT 6SM BR OVC006
      TEMPO 1909/1913 00000KT 4SM BR BKN003
     FM191700 12007KT P6SM BKN025
     FM192000 13008KT P6SM SCT050=



000
FTUS44 KFWD 190800 AAA
TAFACT
TAF AMD
KACT 190830Z 1909/2006 10004KT P6SM BKN007 OVC015
      TEMPO 1909/1913 00000KT 4SM BR BKN003
     FM191700 12007KT P6SM BKN025
     FM192000 13008KT P6SM SCT050=



000
FTUS44 KFWD 190500 CCA
TAFACT
TAF COR
KACT 190530Z 1906/2006 12004KT P6SM FEW003 BKN011
     FM190900 14008KT 5SM BR OVC007
     FM191700 12007KT P6SM BKN025
     FM192000 13008KT P6SM SCT050=



000
FTUS44 KFWD 190500
TAFDFW
TAF
KDFW 190520Z 1906/2012 18010KT P6SM BKN150
     FM191200 12003KT P6SM BKN015
     FM191700 13009KT P6SM SCT040 BKN250=



000
FTUS44 KFWD 190500
TAFFTW
TAF
KFTW 190520Z 1906/2006 18008KT P6SM BKN150
     FM191100 12003KT P6SM BKN015
     FM191700 13009KT P6SM SCT040 BKN250=



000
FTUS44 KFWD 190500
TAFACT
TAF
KACT 190520Z 1906/2006 10005KT P6SM FEW007 SCT010 BKN025
     FM190700 14004KT P6SM BKN010
     FM190900 14008KT 5SM BR OVC007
     FM191700 12007KT P6SM BKN025
     FM192000 13008KT P6SM SCT050=



000
FTUS44 KFWD 190300 AAE
TAFACT
TAF AMD
KACT 190322Z 1903/1924 19005KT P6SM -RA OVC100
     FM190600 14008KT P6SM BKN015
     FM190900 14008KT 5SM BR OVC007
     FM191700 12007KT P6SM BKN025=



000
FTUS44 KFWD 190300 AAC
TAFDFW
TAF AMD
KDFW 190322Z 1903/2006 18010KT P6SM BKN150
     FM191200 12003KT P6SM BKN015
     FM191700 13009KT P6SM FEW250=



000
FTUS44 KFWD 190300 AAC
TAFFTW
TAF AMD
KFTW 190322Z 1903/1924 18008KT P6SM BKN150
     FM191200 12003KT P6SM BKN015
     FM191700 13009KT P6SM FEW250=



000
FTUS44 KFWD 190200 AAD
TAFACT
TAF AMD
KACT 190202Z 1902/1924 17005KT P6SM -RA OVC100
     FM190600 14008KT P6SM BKN015
     FM190900 14008KT 5SM BR OVC007
     FM191700 12007KT P6SM BKN025=



000
FTUS44 KFWD 190200 AAB
TAFDFW
TAF AMD
KDFW 190202Z 1902/2006 16010KT P6SM SCT040 BKN150
     FM191200 12003KT P6SM BKN015
     FM191700 13009KT P6SM FEW250=



000
FTUS44 KFWD 190200 AAB
TAFFTW
TAF AMD
KFTW 190202Z 1902/1924 16009KT P6SM BKN150
     FM191200 12003KT P6SM BKN015
     FM191700 13009KT P6SM FEW250=



000
FTUS44 KFWD 190100 AAC
TAFACT
TAF AMD
KACT 190108Z 1901/1924 12005KT P6SM -TSRA OVC100CB
     FM190600 14008KT P6SM BKN015
     FM190900 14008KT 5SM BR OVC007
     FM191700 12007KT P6SM BKN025=



000
FTUS44 KFWD 190000 AAA
TAFFTW
TAF AMD
KFTW 190029Z 1900/1924 12012KT P6SM BKN150
     FM191200 12003KT P6SM BKN015
     FM191700 13009KT P6SM FEW250=



000
FTUS44 KFWD 190000 AAA
TAFDFW
TAF AMD
KDFW 190029Z 1900/2006 12012KT P6SM BKN150
     FM191200 12003KT P6SM BKN015
     FM191700 13009KT P6SM FEW250=



000
FTUS44 KFWD 190000 AAB
TAFACT
TAF AMD
KACT 190007Z 1900/1924 14010KT P6SM VCTS SCT018CB OVC100CB
      TEMPO 1901/1903 6SM -TSRA BKN018CB
     FM190600 14008KT P6SM BKN015
     FM190900 14008KT 5SM BR OVC007
     FM191700 12007KT P6SM BKN025=



000
FTUS44 KFWD 182300 AAA
TAFACT
TAF AMD
KACT 182342Z 1900/1924 13015KT P6SM VCTS BKN018CB
      TEMPO 1901/1903 6SM -TSRA
     FM190600 14008KT P6SM BKN015
     FM190900 14008KT 5SM BR OVC007
     FM191700 12007KT P6SM BKN025=



000
FTUS44 KFWD 182300
TAFFTW
TAF
KFTW 182320Z 1900/1924 11006KT P6SM BKN150
     FM191200 12003KT P6SM BKN015
     FM191700 13009KT P6SM FEW250=



000
FTUS44 KFWD 182300
TAFDFW
TAF
KDFW 182320Z 1900/2006 12006KT P6SM BKN150
     FM191200 12003KT P6SM BKN015
     FM191700 13009KT P6SM FEW250=



000
FTUS44 KFWD 182300
TAFACT
TAF
KACT 182320Z 1900/1924 12013KT P6SM VCTS SCT020CB BKN100CB
      TEMPO 1901/1903 6SM -TSRA BKN025CB
     FM190600 14008KT P6SM BKN015
     FM190900 14008KT 5SM BR OVC007
     FM191700 12007KT P6SM BKN025=



000
FTUS44 KFWD 182200 AAC
TAFACT
TAF AMD
KACT 182247Z 1823/1918 12006KT P6SM VCSH SCT040 BKN120
     FM190000 11010KT P6SM VCTS BKN040CB
      TEMPO 1900/1902 6SM -TSRA
     FM190600 14008KT P6SM BKN015
     FM190800 14008KT P6SM OVC007
     FM191500 09005KT P6SM OVC015=



000
FTUS44 KFWD 182000 AAC
TAFDFW
TAF AMD
KDFW 182058Z 1821/1924 06010KT P6SM VCSH SCT035 BKN120
     FM182230 10006KT P6SM SCT040 BKN140
     FM190200 15006KT P6SM BKN150
     FM191200 12003KT P6SM BKN015
     FM191700 13004KT P6SM FEW250=



000
FTUS44 KFWD 182000 AAB
TAFACT
TAF AMD
KACT 182058Z 1821/1918 08010KT P6SM VCSH SCT025 BKN120
      TEMPO 1822/1824 P6SM BKN025
     FM190000 16004KT P6SM VCSH SCT040 BKN120
     FM190600 14008KT P6SM BKN015
     FM190800 14008KT P6SM OVC007
     FM191500 09005KT P6SM OVC015=



000
FTUS44 KFWD 182000 AAC
TAFFTW
TAF AMD
KFTW 182058Z 1821/1918 08008KT P6SM VCSH SCT035 BKN120
     FM182230 10006KT P6SM SCT040 BKN140
     FM190200 15006KT P6SM BKN150
     FM191200 12003KT P6SM BKN015
     FM191700 13004KT P6SM FEW250=



000
FTUS44 KFWD 182000 AAA
TAFACT
TAF AMD
KACT 182009Z 1820/1918 08010KT P6SM VCSH BKN025
      TEMPO 1822/1824 P6SM SCT025 BKN050
     FM190000 16004KT P6SM VCSH SCT040 BKN120
     FM190600 14008KT P6SM BKN015
     FM190800 14008KT P6SM OVC007
     FM191500 09005KT P6SM OVC015=



000
FTUS44 KFWD 182000 AAB
TAFFTW
TAF AMD
KFTW 182004Z 1820/1918 07010KT P6SM VCSH SCT035 BKN120
     FM182200 10006KT P6SM SCT040 BKN140
     FM190200 15006KT P6SM BKN150
     FM191200 12003KT P6SM BKN015
     FM191700 13004KT P6SM FEW250=



000
FTUS44 KFWD 182000 AAB
TAFDFW
TAF AMD
KDFW 182004Z 1820/1924 06010KT P6SM VCSH SCT035 BKN120
     FM182200 10006KT P6SM SCT040 BKN140
     FM190200 15006KT P6SM BKN150
     FM191200 12003KT P6SM BKN015
     FM191700 13004KT P6SM FEW250=



000
FTUS44 KFWD 181800 AAA
TAFFTW
TAF AMD
KFTW 181817Z 1818/1918 07008KT P6SM BKN035 BKN150
     FM181900 10007KT P6SM VCTS BKN040CB OVC120
      TEMPO 1819/1822 5SM TSRA
     FM190200 15006KT P6SM SCT140
     FM191200 12003KT P6SM BKN015
     FM191700 13004KT P6SM FEW250=



000
FTUS44 KFWD 181800 AAA
TAFDFW
TAF AMD
KDFW 181815Z 1818/1924 07008KT P6SM BKN025 BKN150
     FM181900 10007KT P6SM VCTS BKN040CB OVC100
      TEMPO 1819/1821 5SM TSRA
     FM190200 15006KT P6SM SCT140
     FM191200 12003KT P6SM BKN015
     FM191700 13004KT P6SM FEW250=



000
FTUS44 KFWD 181700
TAFDFW
TAF
KDFW 181740Z 1818/1924 07008KT P6SM BKN025 BKN150
     FM181900 10007KT P6SM VCSH BKN040 OVC100
     FM190200 15006KT P6SM SCT140
     FM191200 12003KT P6SM BKN015
     FM191700 13004KT P6SM FEW250=



000
FTUS44 KFWD 181700
TAFACT
TAF
KACT 181740Z 1818/1918 15005KT P6SM VCTS BKN030CB
      TEMPO 1819/1823 5SM -TSRA
     FM182300 16004KT P6SM BKN120
     FM190600 14008KT P6SM BKN015
     FM190800 14008KT P6SM OVC007
     FM191500 09005KT P6SM OVC015=



000
FTUS44 KFWD 181700
TAFFTW
TAF
KFTW 181740Z 1818/1918 07008KT P6SM SCT025 BKN150
     FM181900 10007KT P6SM VCSH BKN040 OVC100
     FM190200 15006KT P6SM SCT140
     FM191200 12003KT P6SM BKN015
     FM191700 13004KT P6SM FEW250=



000
FTUS44 KFWD 181500 AAB
TAFACT
TAF AMD
KACT 181510Z 1815/1912 15005KT P6SM OVC008
     FM181600 15006KT P6SM SCT009 BKN014
     FM181900 18006KT 5SM -TSRA BKN030CB
     FM190000 15004KT P6SM SCT060 BKN120
     FM190900 14008KT P6SM BKN015=



000
FTUS44 KFWD 181500 AAA
TAFFTW
TAF AMD
KFTW 181510Z 1815/1912 14004KT P6SM BKN015 BKN110
     FM181700 17007KT P6SM VCSH BKN040 OVC100
     FM182000 16008KT P6SM VCTS SCT050CB
     FM190200 15006KT P6SM SCT150
     FM191100 15005KT P6SM BKN020=



000
FTUS44 KFWD 181500 AAB
TAFDFW
TAF AMD
KDFW 181510Z 1815/1918 14004KT P6SM BKN015 BKN150
     FM181700 17007KT P6SM VCSH BKN040 OVC100
     FM182000 16008KT P6SM VCTS SCT050CB
     FM190200 15006KT P6SM SCT150
     FM191100 15005KT P6SM BKN020=



000
FTUS44 KFWD 181300 AAA
TAFACT
TAF AMD
KACT 181355Z 1814/1912 15005KT 5SM BR OVC005
     FM181600 15006KT P6SM SCT005 BKN014
     FM181900 18006KT 5SM -TSRA BKN030CB
     FM190000 15004KT P6SM SCT060 BKN120
     FM190900 14008KT P6SM BKN015=



000
FTUS44 KFWD 181300 AAA
TAFDFW
TAF AMD
KDFW 181303Z 1813/1918 17004KT P6SM BKN015 BKN150
      TEMPO 1813/1816 BKN008
     FM181700 17007KT P6SM VCSH BKN040 OVC100
     FM182000 16008KT P6SM VCTS SCT050CB
     FM190200 15006KT P6SM SCT150
     FM191100 15005KT P6SM BKN020=



000
FTUS44 KFWD 181100
TAFFTW
TAF
KFTW 181136Z 1812/1912 17004KT P6SM SCT015 BKN150
     FM181700 17007KT P6SM VCSH BKN040 OVC100
     FM182000 16008KT P6SM VCTS SCT050CB
     FM190200 15006KT P6SM SCT150
     FM191100 15005KT P6SM BKN020=



000
FTUS44 KFWD 181100
TAFACT
TAF
KACT 181136Z 1812/1912 16006KT P6SM OVC014
     FM181900 18006KT 5SM -TSRA BKN030CB
     FM190000 15004KT P6SM SCT060 BKN120
     FM190900 14008KT P6SM BKN015=



000
FTUS44 KFWD 181100
TAFDFW
TAF
KDFW 181136Z 1812/1918 17004KT P6SM SCT015 BKN150
      TEMPO 1813/1816 BKN015
     FM181700 17007KT P6SM VCSH BKN040 OVC100
     FM182000 16008KT P6SM VCTS SCT050CB
     FM190200 15006KT P6SM SCT150
     FM191100 15005KT P6SM BKN020=



000
FTUS44 KFWD 180900 AAB
TAFACT
TAF AMD
KACT 180904Z 1809/1906 20010KT P6SM BKN011
      TEMPO 1809/1813 5SM BR BKN008
     FM181900 18006KT P6SM VCTS SCT030CB
     FM190000 15003KT P6SM BKN120=



000
FTUS44 KFWD 180900 AAA
TAFDFW
TAF AMD
KDFW 180904Z 1809/1912 17004KT P6SM SCT015 SCT100 BKN150
     FM181400 14005KT P6SM VCSH BKN018 OVC150
     FM182000 16008KT P6SM VCTS SCT050CB
     FM190200 15006KT P6SM SCT150=



000
FTUS44 KFWD 180900 AAA
TAFFTW
TAF AMD
KFTW 180904Z 1809/1906 17004KT P6SM SCT015 SCT100 BKN150
     FM181400 14005KT P6SM VCSH BKN018 OVC150
     FM182000 16008KT P6SM VCTS SCT050CB
     FM190200 15006KT P6SM SCT150=



000
FTUS44 KFWD 180700 AAA
TAFACT
TAF AMD
KACT 180701Z 1807/1906 20010KT P6SM BKN006
     FM181000 17006KT 4SM BR VCSH OVC008
     FM181900 18006KT P6SM VCTS SCT030CB
     FM190000 15003KT P6SM BKN120=



000
FTUS44 KFWD 180500
TAFACT
TAF
KACT 180528Z 1806/1906 18010KT P6SM VCSH SCT011 BKN150
     FM180800 17007KT 5SM BR BKN020 OVC150
     FM181000 17006KT 4SM BR VCSH OVC012
     FM181900 18006KT P6SM VCTS SCT030CB
     FM190000 15003KT P6SM BKN120=



000
FTUS44 KFWD 180500
TAFDFW
TAF
KDFW 180528Z 1806/1912 15004KT P6SM SCT100 BKN150
     FM181500 14005KT P6SM VCSH BKN025 BKN150
     FM182000 16008KT P6SM VCTS SCT050CB
     FM190200 15006KT P6SM SCT150=



000
FTUS44 KFWD 180500
TAFFTW
TAF
KFTW 180528Z 1806/1906 18005KT P6SM SCT050 BKN150
     FM181500 14005KT P6SM VCSH BKN025 BKN150
     FM182000 16008KT P6SM VCTS SCT050CB
     FM190200 15006KT P6SM SCT150=



000
FTUS44 KFWD 180300 AAB
TAFDFW
TAF AMD
KDFW 180306Z 1803/1906 15004KT P6SM SCT100 BKN150
     FM180900 17004KT P6SM VCSH BKN015 BKN140
     FM181500 14005KT P6SM SCT035 BKN150=



000
FTUS44 KFWD 180300 AAA
TAFACT
TAF AMD
KACT 180306Z 1803/1824 20008KT P6SM VCSH BKN025
     FM181000 17006KT 4SM BR VCSH OVC012
     FM181700 18006KT P6SM VCSH SCT030=



000
FTUS44 KFWD 180300 AAA
TAFFTW
TAF AMD
KFTW 180306Z 1803/1824 18008KT P6SM SCT050 BKN150
     FM180900 17004KT P6SM VCSH BKN015 BKN140
     FM181500 14005KT P6SM SCT035 BKN150=



000
FTUS44 KFWD 180100 AAA
TAFDFW
TAF AMD
KDFW 180129Z 1801/1906 16005KT P6SM VCSH SCT100 BKN150
     FM180900 17004KT P6SM VCSH BKN015 BKN140
     FM181500 14005KT P6SM SCT035 BKN150=



000
FTUS44 KFWD 172300
TAFDFW
TAF
KDFW 172323Z 1800/1906 16015KT P6SM VCTS SCT050CB BKN150
     FM180200 17006KT P6SM SCT050 BKN150
     FM180900 17004KT P6SM VCSH BKN015 BKN140
     FM181500 14005KT P6SM SCT035 BKN150=



000
FTUS44 KFWD 172300
TAFACT
TAF
KACT 172323Z 1800/1824 12006KT P6SM VCTS SCT050CB BKN120
     FM180300 18005KT P6SM VCSH BKN020
     FM181000 17006KT 4SM BR VCSH OVC012
     FM181700 18006KT P6SM SCT030=



000
FTUS44 KFWD 172300
TAFFTW
TAF
KFTW 172323Z 1800/1824 11010KT P6SM VCTS SCT050CB BKN150
     FM180200 17006KT P6SM SCT050 BKN150
     FM180900 17004KT P6SM VCSH BKN015 BKN140
     FM181500 14005KT P6SM SCT035 BKN150=



000
FTUS44 KFWD 172200 AAB
TAFDFW
TAF AMD
KDFW 172200Z 1722/1824 16015KT P6SM VCTS SCT050CB BKN150
     FM180000 17006KT P6SM SCT050 BKN150
     FM181000 17004KT P6SM BKN015 BKN140
     FM181500 14005KT P6SM SCT035 BKN150=



000
FTUS44 KFWD 172100 AAB
TAFFTW
TAF AMD
KFTW 172154Z 1722/1818 11010KT P6SM VCTS SCT050CB BKN150
     FM180000 17006KT P6SM SCT050 BKN150
     FM181000 17004KT P6SM BKN015 BKN140
     FM181500 14005KT P6SM SCT035 BKN150=



000
FTUS44 KFWD 172100 AAA
TAFDFW
TAF AMD
KDFW 172104Z 1721/1824 18006KT P6SM VCTS SCT050CB BKN150
     FM180000 17006KT P6SM SCT050 BKN150
     FM181000 17004KT P6SM BKN015 BKN140
     FM181500 14005KT P6SM SCT035 BKN150=



000
FTUS44 KFWD 172100 AAA
TAFACT
TAF AMD
KACT 172104Z 1721/1818 18006KT P6SM SCT040 BKN120
      TEMPO 1801/1805 5SM SHRA BKN025
     FM180700 18005KT P6SM BKN020
     FM181000 17006KT 3SM BR OVC009
     FM181600 18006KT P6SM BKN015=



000
FTUS44 KFWD 172100 AAA
TAFFTW
TAF AMD
KFTW 172104Z 1721/1818 18006KT P6SM VCTS SCT050CB BKN150
     FM180000 17006KT P6SM SCT050 BKN150
     FM181000 17004KT P6SM BKN015 BKN140
     FM181500 14005KT P6SM SCT035 BKN150=



000
FTUS44 KFWD 171700
TAFFTW
TAF
KFTW 171735Z 1718/1818 17007KT P6SM SCT035 BKN140
     FM181000 17004KT P6SM BKN015 BKN140
     FM181500 14005KT P6SM SCT035 BKN150=



000
FTUS44 KFWD 171700
TAFDFW
TAF
KDFW 171735Z 1718/1824 17007KT P6SM SCT035 BKN140
     FM181000 17004KT P6SM BKN015 BKN140
     FM181500 14005KT P6SM SCT035 BKN150=



000
FTUS44 KFWD 171700
TAFACT
TAF
KACT 171733Z 1718/1818 18005KT P6SM BKN025 BKN200
     FM172000 16006KT P6SM VCTS BKN040CB
     FM180100 16006KT P6SM SCT025 OVC050
      TEMPO 1801/1804 5SM SHRA BKN025
     FM181000 17006KT 3SM BR OVC009
     FM181600 18006KT P6SM BKN015=



000
FTUS44 KFWD 171600 AAB
TAFACT
TAF AMD
KACT 171626Z 1716/1812 23005KT P6SM OVC015
     FM171800 18005KT P6SM VCSH SCT020 BKN250
      TEMPO 1718/1720 BKN020
     FM172200 16006KT 4SM -TSRA BR BKN040CB
     FM180300 15006KT 5SM -SHRA BR SCT025 OVC050
     FM181000 17006KT 3SM BR OVC010=



000
FTUS44 KFWD 171500 AAA
TAFACT
TAF AMD
KACT 171517Z 1715/1812 18007KT P6SM OVC015
     FM171700 18005KT P6SM VCSH SCT030 BKN250
     FM172200 16006KT 4SM -TSRA BR BKN040CB
     FM180300 15006KT 5SM -SHRA BR SCT025 OVC050
     FM181000 17006KT 3SM BR OVC010=



000
FTUS44 KFWD 171500 AAA
TAFDFW
TAF AMD
KDFW 171517Z 1715/1818 18006KT P6SM SCT030 BKN250
     FM171800 18006KT P6SM VCSH SCT040 BKN140
     FM180100 18005KT P6SM OVC120=



000
FTUS44 KFWD 171500 AAA
TAFFTW
TAF AMD
KFTW 171517Z 1715/1812 18006KT P6SM SCT030 BKN250
     FM171800 18006KT P6SM VCSH SCT040 BKN140
     FM180100 18005KT P6SM OVC120=



000
FTUS44 KFWD 171100 CCA
TAFACT
TAF COR
KACT 171145Z 1712/1812 18006KT P6SM BKN007
     FM171500 18007KT P6SM BKN015
     FM171600 17005KT P6SM VCSH SCT040 BKN250
     FM172200 16006KT 4SM -TSRA BR BKN040CB
     FM180300 15006KT 5SM -SHRA BR SCT025 OVC050
     FM181000 17006KT 3SM BR OVC010=



000
FTUS44 KFWD 171100
TAFDFW
TAF
KDFW 171132Z 1712/1818 16007KT P6SM SCT020 BKN150
      TEMPO 1714/1717 BKN020
     FM171700 18006KT P6SM VCSH SCT040 BKN140
     FM180100 18005KT P6SM OVC120=



000
FTUS44 KFWD 171100
TAFACT
TAF
KACT 171132Z 1712/1812 18007KT P6SM SCT008 BKN140
      TEMPO 1712/1716 5SM BR BKN008
     FM171600 17005KT P6SM VCSH SCT040 BKN250
     FM172200 16006KT 4SM -TSRA BR BKN040CB
     FM180300 15006KT 5SM -SHRA BR SCT025 OVC050
     FM181000 17006KT 3SM BR OVC010=



000
FTUS44 KFWD 171100
TAFFTW
TAF
KFTW 171132Z 1712/1812 16007KT P6SM SCT020 BKN150
      TEMPO 1714/1717 BKN020
     FM171700 18006KT P6SM VCSH SCT040 BKN140
     FM180100 18005KT P6SM OVC120=



000
FTUS44 KFWD 170800 AAA
TAFFTW
TAF AMD
KFTW 170851Z 1709/1806 18008KT P6SM BKN150
      TEMPO 1714/1717 BKN025
     FM171700 18006KT P6SM VCSH SCT040 BKN140
     FM180100 19005KT P6SM BKN150=



000
FTUS44 KFWD 170800 AAA
TAFDFW
TAF AMD
KDFW 170851Z 1709/1812 18008KT P6SM BKN150
      TEMPO 1714/1717 BKN025
     FM171700 18006KT P6SM VCSH SCT040 BKN140
     FM180100 19005KT P6SM BKN150=



000
FTUS44 KFWD 170800 AAA
TAFACT
TAF AMD
KACT 170851Z 1709/1806 18007KT P6SM BKN120
      TEMPO 1712/1716 6SM BR BKN020
     FM171600 15005KT P6SM VCSH SCT040 BKN250
      TEMPO 1721/1724 4SM -TSRA BR BKN040CB
     FM180300 15006KT 5SM -TSRA BR SCT025 OVC050CB=



    US Dept of Commerce
    National Oceanic and Atmospheric Administration
    National Weather Service
    1325 East West Highway
    Silver Spring, MD 20910
    Page Author: NWS Internet Services Team
Disclaimer
Information Quality
Credits
Glossary
Privacy Policy
Freedom of Information Act (FOIA)
About Us
Career Opportunities